Архив погоды в Шарыпово

Метеограмма Шарыпово
Четверг, 27 Июня
Время местн. Темп Ветер Видим Явления Облачность нижн/средн/верх Атм. давл. Влжн Точка росы ВНГО R Сост. почвы Tg s
Напр Скр Прв ур.ст ур.м изм
07:00 +15.2° Ю,Ю-В 1 - более 50 км - переменная облачность 732 760 +0.2 81% +11.9° более 2.5 км 0 Сухая (без трещин) +8° -
04:00 +12.2° Ю 1 - 20 км - переменная облачность 732 760 -0.5 91% +10.7° более 2.5 км - - - -
01:00 +14.2° штиль 0 - 20 км - переменная облачность 732 760 -0.2 89% +12.4° более 2.5 км - - - -
Среда, 26 Июня
Время местн. Темп Ветер Видим Явления Облачность нижн/средн/верх Атм. давл. Влжн Точка росы ВНГО R Сост. почвы Tg s
Напр Скр Прв ур.ст ур.м изм
22:00 +20.4° В,С-В 1 - 50 км - облачно с прояснениями 732 760 -0.2 68% +14.2° более 2.5 км - - - -
19:00 +23.8° С 3 - 50 км - облачно 733 760 -0.3 50% +12.7° 1.5 км 0 - - -
16:00 +23.1° З,Ю-З 4 - 50 км - облачно 733 760 -0.5 50% +12° 1.5 км - - - -
13:00 +21.4° З,С-З 4 - 50 км - облачно 733 761 -0.4 60% +13.2° 1.5 км - - - -
10:00 +17.6° З,С-З 4 - более 50 км - облачно 734 762 -0.3 63% +10.5° 1.5 км - - - -
07:00 +14.8° З 2 - 50 км - облачно 734 762 0 76% +10.6° 1 км 0 Сухая (без трещин) - -
04:00 +14.7° З 3 - 20 км - облачно 734 762 +0.2 68% +8.8° 1 км - - - -
01:00 +14.6° штиль 0 - 20 км - облачно 734 762 0 71% +9.4° 1 км - - - -
Вторник, 25 Июня
Время местн. Темп Ветер Видим Явления Облачность нижн/средн/верх Атм. давл. Влжн Точка росы ВНГО R Сост. почвы Tg s
Напр Скр Прв ур.ст ур.м изм
22:00 +16.4° З 3 - 50 км - облачно 734 762 +0.2 57% +7.9° 1 км - - - -
19:00 +17.5° С,С-З 3 - 50 км - облачно 734 761 +0.9 54% +8.1° 1.5 км 0 - - -
16:00 +18.4° З 2 - 50 км - облачно 733 760 +0.2 50% +7.9° 1 км - - - -
13:00 +17.1° З 2 - 50 км - облачно 733 760 0 54% +7.6° 1.5 км - - - -
10:00 +13.6° С,С-З 2 - более 50 км - преимущественно облачно 733 761 +0.2 66% +7.3° 1.5 км - - - -
07:00 +7.2° Ю,Ю-З 1 - 50 км - облачно 732 761 +0.2 93% +6.1° 1.5 км 0 Сухая (без трещин) - -
04:00 +6.9° штиль 0 - 20 км - переменная облачность 732 761 +0.2 94% +6° 1 км - - - -
01:00 +9.8° Ю 1 - 20 км - облачно с прояснениями 732 761 0 87% +7.7° 1 км - - - -
Понедельник, 24 Июня
Время местн. Темп Ветер Видим Явления Облачность нижн/средн/верх Атм. давл. Влжн Точка росы ВНГО R Сост. почвы Tg s
Напр Скр Прв ур.ст ур.м изм
22:00 +13.7° штиль 0 - 50 км - облачно с прояснениями 732 760 +0.7 63% +6.9° 1 км - - - -
19:00 +17.6° З 3 - более 50 км - преимущественно облачно 731 759 0 41% +4.3° 1 км 0 - - -
16:00 +17.7° С-З 2 - 50 км - преимущественно облачно 731 759 -0.2 41% +4.2° 1 км - - - -
13:00 +16° З 4 - 50 км - облачно с прояснениями 732 759 +0.2 46% +4.5° 1 км - - - -
10:00 +15° З 5 - 50 км - облачно с прояснениями 731 759 +0.2 53% +5.6° 1 км - - - -
07:00 +12.5° З,Ю-З 3 - 50 км небо без изменений {ливневые осадки} облачно 731 759 +0.8 71% +7.4° - 7 Влажная (без луж) - -
04:00 +13° З 3 - 20 км небо без изменений {ливневые осадки} облачно 730 759 +0.8 83% +10.1° 1 км - - - -